Time;durP1;ratioP1;P1;durP2;ratioP2;P2;SDS_P1;SDS_P2;PMS_P1;PMS_P2;Temp;Humidity;BMP_temperature;BMP_pressure;BME280_temperature;BME280_humidity;BME280_pressure;Samples;Min_cycle;Max_cycle;Signal;HPM_P1;HPM_P2
2021/12/25 00:01:28;;;;;;;6.78;1.00;;;;;;;;;;5067712;28;20760;-77
2021/12/25 00:03:55;;;;;;;5.10;0.93;;;;;;;;;;5085180;28;20028;-77
2021/12/25 00:06:21;;;;;;;2.40;0.85;;;;;;;;;;5100975;28;20040;-76
2021/12/25 00:08:47;;;;;;;5.90;0.85;;;;;;;;;;5092346;28;20075;-76
2021/12/25 00:11:13;;;;;;;4.68;0.63;;;;;;;;;;5098817;28;20035;-76
2021/12/25 00:13:40;;;;;;;5.50;0.60;;;;;;;;;;5093039;28;20377;-76
2021/12/25 00:16:07;;;;;;;7.43;1.23;;;;;;;;;;5104626;28;20409;-75
2021/12/25 00:18:33;;;;;;;7.97;2.55;;;;;;;;;;5107481;28;20035;-76
2021/12/25 00:20:59;;;;;;;5.45;0.60;;;;;;;;;;5076959;28;20024;-75
2021/12/25 00:23:26;;;;;;;7.13;0.90;;;;;;;;;;5105465;28;20495;-76
2021/12/25 00:26:00;;;;;;;8.32;2.05;;;;;;;;;;5109132;28;20038;-74
2021/12/25 00:36:00;;;;;;;3.22;1.05;;;;;;;;;;5100136;28;20036;-75
2021/12/25 00:38:27;;;;;;;4.10;0.98;;;;;;;;;;5101471;28;20036;-75
2021/12/25 00:40:53;;;;;;;5.88;0.80;;;;;;;;;;5110776;27;20432;-74
2021/12/25 00:43:19;;;;;;;1.60;0.55;;;;;;;;;;5103052;28;20034;-75
2021/12/25 00:45:45;;;;;;;3.13;0.45;;;;;;;;;;5107428;28;20028;-74
2021/12/25 00:48:11;;;;;;;5.60;0.82;;;;;;;;;;5102500;28;20031;-74
2021/12/25 00:50:37;;;;;;;3.60;0.60;;;;;;;;;;5088810;28;20031;-73
2021/12/25 00:53:03;;;;;;;4.40;0.73;;;;;;;;;;5111123;28;20080;-76
2021/12/25 00:55:29;;;;;;;2.78;0.60;;;;;;;;;;5105655;28;20465;-77
2021/12/25 00:57:55;;;;;;;5.07;0.80;;;;;;;;;;5094058;28;20040;-76
2021/12/25 01:00:21;;;;;;;9.07;1.02;;;;;;;;;;5104513;28;20533;-75
2021/12/25 01:02:47;;;;;;;3.08;0.50;;;;;;;;;;5107498;28;20063;-77
2021/12/25 01:05:15;;;;;;;5.05;0.60;;;;;;;;;;5096931;28;20051;-77
2021/12/25 01:07:41;;;;;;;5.53;0.60;;;;;;;;;;5105839;28;20470;-77
2021/12/25 01:10:09;;;;;;;4.60;1.33;;;;;;;;;;5107593;27;20059;-77
2021/12/25 01:13:00;;;;;;;4.15;1.25;;;;;;;;;;5092398;28;20051;-77
2021/12/25 01:15:36;;;;;;;3.67;0.50;;;;;;;;;;5104008;27;20032;-77
2021/12/25 01:26:31;;;;;;;2.15;0.50;;;;;;;;;;5095898;28;20032;-76
2021/12/25 01:36:53;;;;;;;3.10;0.55;;;;;;;;;;5101519;28;20024;-77
2021/12/25 01:39:41;;;;;;;2.17;0.45;;;;;;;;;;5102972;28;20035;-76
2021/12/25 01:50:15;;;;;;;3.13;0.95;;;;;;;;;;5101390;28;20028;-77
2021/12/25 01:52:41;;;;;;;6.90;1.08;;;;;;;;;;5097630;28;20060;-77
2021/12/25 01:55:09;;;;;;;3.22;1.65;;;;;;;;;;5103594;28;20107;-74
2021/12/25 01:57:35;;;;;;;5.05;1.00;;;;;;;;;;5106379;28;20036;-74
2021/12/25 02:00:03;;;;;;;4.03;1.95;;;;;;;;;;5079815;28;20035;-74
2021/12/25 02:02:29;;;;;;;1.70;0.30;;;;;;;;;;5096697;28;20023;-75
2021/12/25 02:04:56;;;;;;;15.15;1.35;;;;;;;;;;5106629;28;20047;-75
2021/12/25 02:07:22;;;;;;;4.57;0.50;;;;;;;;;;5085248;28;20027;-74
2021/12/25 02:09:48;;;;;;;6.88;0.52;;;;;;;;;;5097200;28;20039;-74
2021/12/25 02:12:15;;;;;;;5.47;0.73;;;;;;;;;;5100457;28;20024;-74
2021/12/25 02:14:44;;;;;;;2.45;0.40;;;;;;;;;;5108637;28;20032;-75
2021/12/25 02:17:27;;;;;;;2.78;0.70;;;;;;;;;;5100540;28;20106;-76
2021/12/25 02:20:09;;;;;;;8.50;0.70;;;;;;;;;;5098861;28;20385;-75
2021/12/25 02:22:35;;;;;;;4.35;0.43;;;;;;;;;;5088516;28;20385;-76
2021/12/25 02:25:01;;;;;;;2.25;0.88;;;;;;;;;;5109407;28;20427;-75
2021/12/25 02:27:27;;;;;;;2.70;0.50;;;;;;;;;;5097489;28;20056;-76
2021/12/25 02:29:53;;;;;;;5.72;0.57;;;;;;;;;;5081620;28;20029;-75
2021/12/25 02:32:19;;;;;;;5.88;0.47;;;;;;;;;;5105774;28;20084;-76
2021/12/25 02:34:45;;;;;;;3.40;0.32;;;;;;;;;;5103294;28;20040;-76
2021/12/25 02:37:11;;;;;;;1.80;0.30;;;;;;;;;;5067924;28;20032;-76
2021/12/25 02:39:37;;;;;;;2.17;0.38;;;;;;;;;;5084175;28;20028;-76
2021/12/25 02:42:04;;;;;;;1.58;0.43;;;;;;;;;;5096672;28;20020;-77
2021/12/25 02:44:31;;;;;;;0.85;0.40;;;;;;;;;;5097261;28;20028;-77
2021/12/25 02:46:59;;;;;;;2.97;0.50;;;;;;;;;;5105932;28;20566;-77
2021/12/25 02:49:25;;;;;;;1.48;0.30;;;;;;;;;;5095460;28;20032;-77
2021/12/25 02:51:52;;;;;;;2.03;0.70;;;;;;;;;;5099704;28;20048;-76
2021/12/25 02:54:18;;;;;;;2.15;0.40;;;;;;;;;;5101197;28;20386;-76
2021/12/25 02:56:44;;;;;;;2.67;0.30;;;;;;;;;;5073330;28;20529;-76
2021/12/25 02:59:15;;;;;;;1.08;0.28;;;;;;;;;;5106207;28;20856;-77
2021/12/25 03:01:42;;;;;;;2.72;0.52;;;;;;;;;;5103343;28;20032;-75
2021/12/25 03:04:08;;;;;;;2.28;0.45;;;;;;;;;;5107045;28;20059;-75
2021/12/25 03:06:35;;;;;;;3.70;0.20;;;;;;;;;;5099807;28;20059;-75
2021/12/25 03:09:01;;;;;;;3.45;0.40;;;;;;;;;;5109065;28;20028;-75
2021/12/25 03:11:27;;;;;;;3.45;0.40;;;;;;;;;;5085003;28;20539;-75
2021/12/25 03:14:00;;;;;;;2.38;0.32;;;;;;;;;;5115865;27;20039;-75
2021/12/25 03:16:26;;;;;;;3.75;1.25;;;;;;;;;;5099677;28;20034;-75
2021/12/25 03:18:55;;;;;;;1.17;0.45;;;;;;;;;;5106389;28;20027;-75
2021/12/25 03:21:21;;;;;;;1.70;0.75;;;;;;;;;;5095300;28;20040;-75
2021/12/25 03:23:48;;;;;;;0.52;0.32;;;;;;;;;;5104641;28;20085;-75
2021/12/25 03:26:14;;;;;;;2.13;0.43;;;;;;;;;;5104588;28;20484;-75
2021/12/25 03:28:43;;;;;;;0.90;0.40;;;;;;;;;;5109629;28;20052;-76
2021/12/25 03:31:19;;;;;;;3.90;0.50;;;;;;;;;;5093487;28;20036;-76
2021/12/25 03:33:47;;;;;;;1.75;0.52;;;;;;;;;;5103702;28;20030;-77
2021/12/25 03:36:14;;;;;;;3.53;0.47;;;;;;;;;;5103660;28;20031;-75
2021/12/25 03:38:40;;;;;;;1.50;0.43;;;;;;;;;;5086678;28;20067;-76
2021/12/25 03:41:07;;;;;;;2.35;0.30;;;;;;;;;;5098425;28;20032;-76
2021/12/25 03:43:34;;;;;;;1.98;0.40;;;;;;;;;;5100243;28;20028;-76
2021/12/25 03:46:00;;;;;;;2.55;0.50;;;;;;;;;;5100354;28;20024;-77
2021/12/25 03:59:01;;;;;;;1.15;0.60;;;;;;;;;;5107371;28;20111;-76
2021/12/25 04:01:55;;;;;;;2.05;0.50;;;;;;;;;;5091766;28;20408;-76
2021/12/25 04:04:32;;;;;;;0.70;0.40;;;;;;;;;;5116630;27;20454;-77
2021/12/25 04:07:09;;;;;;;0.75;0.17;;;;;;;;;;5102020;28;20032;-77
2021/12/25 04:09:38;;;;;;;1.33;0.30;;;;;;;;;;5101595;28;20429;-76
2021/12/25 04:12:08;;;;;;;3.47;0.20;;;;;;;;;;5101642;28;20035;-77
2021/12/25 04:14:34;;;;;;;1.38;0.32;;;;;;;;;;5089314;28;20028;-76
2021/12/25 04:17:01;;;;;;;1.17;0.20;;;;;;;;;;5108345;28;20023;-77
2021/12/25 04:19:27;;;;;;;4.63;0.98;;;;;;;;;;5102718;28;20043;-76
2021/12/25 04:21:58;;;;;;;1.35;0.38;;;;;;;;;;5113849;27;20035;-76
2021/12/25 04:24:24;;;;;;;0.70;0.22;;;;;;;;;;5102973;28;20028;-76
2021/12/25 04:26:51;;;;;;;2.58;0.88;;;;;;;;;;5091446;28;20023;-77
2021/12/25 04:42:55;;;;;;;0.40;0.25;;;;;;;;;;5104820;28;20104;-77
2021/12/25 05:04:23;;;;;;;0.47;0.30;;;;;;;;;;5095896;28;20039;-78
2021/12/25 05:06:49;;;;;;;1.70;0.40;;;;;;;;;;5102454;28;20025;-77
2021/12/25 05:09:16;;;;;;;0.50;0.17;;;;;;;;;;5105283;28;20085;-76
2021/12/25 05:11:42;;;;;;;0.30;0.15;;;;;;;;;;5114048;27;20101;-76
2021/12/25 05:14:08;;;;;;;2.75;0.40;;;;;;;;;;5110684;28;20032;-76
2021/12/25 05:16:34;;;;;;;0.75;0.30;;;;;;;;;;5097636;28;20040;-76
2021/12/25 05:19:00;;;;;;;4.03;0.52;;;;;;;;;;5087108;28;20089;-77
2021/12/25 05:21:26;;;;;;;0.60;0.22;;;;;;;;;;5098092;28;20024;-78
2021/12/25 05:23:52;;;;;;;3.38;0.70;;;;;;;;;;5104230;28;20119;-76
2021/12/25 05:26:18;;;;;;;2.33;0.38;;;;;;;;;;5109308;28;20040;-76
2021/12/25 05:28:52;;;;;;;2.92;0.45;;;;;;;;;;5086925;28;20094;-76
2021/12/25 05:31:18;;;;;;;3.25;0.63;;;;;;;;;;5092566;28;20020;-76
2021/12/25 05:33:44;;;;;;;2.33;0.30;;;;;;;;;;5067366;28;20096;-77
2021/12/25 05:36:10;;;;;;;2.45;0.43;;;;;;;;;;5070820;28;20041;-77
2021/12/25 05:38:36;;;;;;;4.88;0.40;;;;;;;;;;5083052;28;20127;-76
2021/12/25 05:41:03;;;;;;;0.32;0.30;;;;;;;;;;5092031;28;20046;-75
2021/12/25 05:43:29;;;;;;;1.10;0.60;;;;;;;;;;5086585;28;20028;-76
2021/12/25 05:45:55;;;;;;;1.95;0.30;;;;;;;;;;5086127;28;20089;-76
2021/12/25 05:48:21;;;;;;;1.77;0.30;;;;;;;;;;5085285;28;20477;-76
2021/12/25 05:50:48;;;;;;;5.18;0.32;;;;;;;;;;5055028;28;20461;-76
2021/12/25 05:53:14;;;;;;;3.35;0.30;;;;;;;;;;5082884;28;20028;-76
2021/12/25 05:55:40;;;;;;;4.05;0.40;;;;;;;;;;5091371;28;20044;-76
2021/12/25 05:58:07;;;;;;;2.30;0.70;;;;;;;;;;5084783;28;20059;-76
2021/12/25 06:00:34;;;;;;;1.17;0.30;;;;;;;;;;5091270;28;20059;-77
2021/12/25 06:03:00;;;;;;;9.10;0.95;;;;;;;;;;5085770;28;20039;-80
2021/12/25 06:05:26;;;;;;;4.45;0.70;;;;;;;;;;5083793;28;20528;-80
2021/12/25 06:07:52;;;;;;;2.13;0.38;;;;;;;;;;5082710;28;20039;-80
2021/12/25 06:10:18;;;;;;;4.47;1.48;;;;;;;;;;5080160;28;20522;-80
2021/12/25 06:12:47;;;;;;;0.75;0.45;;;;;;;;;;5075453;28;20028;-81
2021/12/25 06:15:15;;;;;;;3.15;0.43;;;;;;;;;;5079966;28;20016;-79
2021/12/25 06:17:41;;;;;;;9.73;3.92;;;;;;;;;;5079743;28;20503;-79
2021/12/25 06:20:08;;;;;;;2.53;1.00;;;;;;;;;;5079984;28;20543;-83
2021/12/25 06:22:34;;;;;;;5.00;0.60;;;;;;;;;;5063143;28;20324;-80
2021/12/25 06:25:00;;;;;;;1.85;0.60;;;;;;;;;;5083760;28;20044;-78
2021/12/25 06:27:26;;;;;;;0.75;0.25;;;;;;;;;;5094012;28;20055;-78
2021/12/25 06:29:52;;;;;;;3.00;0.52;;;;;;;;;;5104243;28;20507;-78
2021/12/25 06:32:19;;;;;;;4.85;0.50;;;;;;;;;;5099035;28;20397;-78
2021/12/25 06:34:45;;;;;;;3.20;0.75;;;;;;;;;;5104721;28;20031;-78
2021/12/25 06:37:12;;;;;;;2.53;0.40;;;;;;;;;;5101507;28;20062;-78
2021/12/25 06:39:40;;;;;;;0.50;0.30;;;;;;;;;;5102294;28;20027;-78
2021/12/25 06:42:07;;;;;;;0.93;0.20;;;;;;;;;;5106616;28;20024;-78
2021/12/25 06:44:33;;;;;;;0.82;0.30;;;;;;;;;;5105240;28;20038;-78
2021/12/25 06:47:00;;;;;;;2.58;0.57;;;;;;;;;;5103881;28;20070;-78
2021/12/25 06:49:26;;;;;;;3.00;0.70;;;;;;;;;;5098845;28;20036;-77
2021/12/25 06:51:52;;;;;;;3.78;0.40;;;;;;;;;;5094041;28;20097;-78
2021/12/25 06:54:19;;;;;;;0.38;0.30;;;;;;;;;;5110939;27;20413;-78
2021/12/25 06:56:46;;;;;;;1.25;0.55;;;;;;;;;;5106149;28;20126;-78
2021/12/25 06:59:12;;;;;;;2.00;0.32;;;;;;;;;;5103288;28;20032;-79
2021/12/25 07:01:39;;;;;;;0.88;0.30;;;;;;;;;;5102782;28;20032;-78
2021/12/25 07:04:06;;;;;;;1.38;0.40;;;;;;;;;;5100892;28;20024;-78
2021/12/25 07:06:33;;;;;;;2.60;0.32;;;;;;;;;;5103578;28;20035;-77
2021/12/25 07:08:59;;;;;;;8.27;3.65;;;;;;;;;;5108793;28;20110;-78
2021/12/25 07:11:25;;;;;;;30.63;11.73;;;;;;;;;;5086221;28;20119;-78
2021/12/25 07:13:52;;;;;;;5.00;1.90;;;;;;;;;;5081129;28;20135;-78
2021/12/25 07:16:18;;;;;;;2.80;0.38;;;;;;;;;;5104724;28;20028;-81
2021/12/25 07:18:44;;;;;;;1.38;0.52;;;;;;;;;;5084347;28;20035;-79
2021/12/25 07:21:11;;;;;;;2.55;0.52;;;;;;;;;;5106185;28;20111;-79
2021/12/25 07:23:37;;;;;;;2.25;0.30;;;;;;;;;;5102217;28;20050;-79
2021/12/25 07:26:03;;;;;;;5.78;1.20;;;;;;;;;;5109421;28;20058;-82
2021/12/25 07:28:29;;;;;;;2.65;0.50;;;;;;;;;;5102415;28;20046;-80
2021/12/25 07:30:58;;;;;;;1.77;0.45;;;;;;;;;;5100245;28;20446;-80
2021/12/25 07:33:24;;;;;;;3.55;1.70;;;;;;;;;;5099654;28;20035;-80
2021/12/25 07:35:50;;;;;;;2.28;1.13;;;;;;;;;;5103990;28;20157;-81
2021/12/25 07:38:18;;;;;;;3.47;1.33;;;;;;;;;;5089616;28;20046;-80
2021/12/25 07:40:44;;;;;;;3.85;0.85;;;;;;;;;;5088195;28;20040;-80
2021/12/25 07:43:10;;;;;;;0.68;0.32;;;;;;;;;;5106528;28;20110;-80
2021/12/25 07:45:36;;;;;;;0.82;0.32;;;;;;;;;;5085805;28;20101;-81
2021/12/25 07:48:03;;;;;;;1.77;0.28;;;;;;;;;;5099368;28;20046;-79
2021/12/25 07:50:31;;;;;;;3.03;0.63;;;;;;;;;;5082945;28;20040;-81
2021/12/25 07:52:57;;;;;;;1.48;0.32;;;;;;;;;;5097016;28;20405;-79
2021/12/25 07:55:24;;;;;;;3.08;1.27;;;;;;;;;;5101090;28;20073;-81
2021/12/25 07:57:50;;;;;;;4.50;2.63;;;;;;;;;;5075313;28;20035;-80
2021/12/25 08:00:17;;;;;;;1.45;0.50;;;;;;;;;;5097758;28;20126;-80
2021/12/25 08:02:44;;;;;;;3.88;0.80;;;;;;;;;;5102090;28;20500;-80
2021/12/25 08:05:10;;;;;;;4.75;1.50;;;;;;;;;;5079160;28;20493;-80
2021/12/25 08:07:36;;;;;;;2.35;0.70;;;;;;;;;;5100421;28;20043;-79
2021/12/25 08:10:13;;;;;;;1.00;0.50;;;;;;;;;;5103982;28;20078;-80
2021/12/25 08:12:43;;;;;;;2.85;0.70;;;;;;;;;;5103237;28;20100;-78
2021/12/25 08:15:10;;;;;;;7.18;2.88;;;;;;;;;;5093907;28;20017;-77
2021/12/25 08:17:36;;;;;;;2.88;0.30;;;;;;;;;;5097059;28;20066;-78
2021/12/25 08:20:02;;;;;;;5.43;1.75;;;;;;;;;;5088433;28;20035;-79
2021/12/25 08:22:28;;;;;;;5.45;0.60;;;;;;;;;;5101475;28;20047;-78
2021/12/25 08:24:54;;;;;;;1.40;0.35;;;;;;;;;;5071277;28;20053;-77
2021/12/25 08:27:20;;;;;;;3.50;0.80;;;;;;;;;;5068335;28;20055;-77
2021/12/25 08:29:46;;;;;;;1.40;0.45;;;;;;;;;;5079901;28;20047;-77
2021/12/25 08:32:12;;;;;;;4.65;0.68;;;;;;;;;;5085387;28;20043;-79
2021/12/25 08:34:38;;;;;;;1.30;0.40;;;;;;;;;;5080787;28;20028;-76
2021/12/25 08:37:05;;;;;;;2.25;0.73;;;;;;;;;;5084734;28;20036;-77
2021/12/25 08:39:31;;;;;;;2.35;0.45;;;;;;;;;;5083750;28;20027;-77
2021/12/25 08:42:02;;;;;;;2.35;0.60;;;;;;;;;;5086456;28;20125;-77
2021/12/25 08:44:33;;;;;;;1.15;0.32;;;;;;;;;;5067514;28;20407;-77
2021/12/25 08:47:00;;;;;;;2.58;0.60;;;;;;;;;;5084362;28;20027;-78
2021/12/25 08:49:29;;;;;;;1.00;0.30;;;;;;;;;;5086755;28;20043;-78
2021/12/25 08:51:55;;;;;;;3.90;0.80;;;;;;;;;;5082433;28;20032;-77
2021/12/25 08:54:21;;;;;;;1.58;0.30;;;;;;;;;;5093404;28;20036;-77
2021/12/25 08:56:48;;;;;;;5.30;0.60;;;;;;;;;;5085416;28;20067;-78
2021/12/25 08:59:14;;;;;;;6.43;1.52;;;;;;;;;;5091876;28;20089;-76
2021/12/25 09:01:40;;;;;;;3.97;0.85;;;;;;;;;;5083663;28;20063;-79
2021/12/25 09:04:06;;;;;;;1.58;0.55;;;;;;;;;;5077748;28;20124;-76
2021/12/25 09:06:33;;;;;;;1.05;0.77;;;;;;;;;;5088157;28;20051;-78
2021/12/25 09:09:01;;;;;;;4.63;0.57;;;;;;;;;;5073311;28;20409;-78
2021/12/25 09:11:27;;;;;;;5.15;0.70;;;;;;;;;;5083660;28;20100;-78
2021/12/25 09:13:53;;;;;;;3.35;0.57;;;;;;;;;;5069397;28;20028;-78
2021/12/25 09:16:19;;;;;;;2.58;0.25;;;;;;;;;;5090089;28;20043;-78
2021/12/25 09:18:46;;;;;;;4.05;0.68;;;;;;;;;;5083557;28;20035;-77
2021/12/25 09:21:12;;;;;;;2.55;0.50;;;;;;;;;;5088137;28;20040;-78
2021/12/25 09:23:38;;;;;;;2.00;0.38;;;;;;;;;;5085358;28;20060;-78
2021/12/25 09:26:04;;;;;;;1.90;0.50;;;;;;;;;;5062505;28;20032;-78
2021/12/25 09:28:30;;;;;;;1.92;0.60;;;;;;;;;;5101613;28;20048;-78
2021/12/25 09:30:57;;;;;;;2.50;0.50;;;;;;;;;;5109103;28;20109;-78
2021/12/25 09:33:22;;;;;;;12.75;0.43;;;;;;;;;;5089132;28;20081;-78
2021/12/25 09:35:49;;;;;;;9.32;1.70;;;;;;;;;;5101878;28;20024;-78
2021/12/25 09:38:15;;;;;;;0.80;0.40;;;;;;;;;;5099748;28;20044;-78
2021/12/25 09:40:41;;;;;;;4.43;1.35;;;;;;;;;;5087773;28;20044;-78
2021/12/25 09:43:07;;;;;;;1.73;0.88;;;;;;;;;;5104224;28;20048;-77
2021/12/25 09:45:33;;;;;;;0.90;0.50;;;;;;;;;;5103973;28;20080;-78
2021/12/25 09:47:59;;;;;;;2.05;0.70;;;;;;;;;;5093137;28;20028;-77
2021/12/25 09:50:25;;;;;;;0.90;0.40;;;;;;;;;;5106425;28;20025;-79
2021/12/25 09:52:51;;;;;;;0.88;0.40;;;;;;;;;;5102043;28;20020;-78
2021/12/25 09:55:18;;;;;;;2.92;0.65;;;;;;;;;;5108934;28;20032;-80
2021/12/25 09:57:46;;;;;;;7.82;2.70;;;;;;;;;;5089520;28;20031;-76
2021/12/25 10:00:17;;;;;;;4.47;0.57;;;;;;;;;;5106720;27;20096;-77
2021/12/25 10:02:48;;;;;;;1.13;0.50;;;;;;;;;;5104844;28;20111;-77
2021/12/25 10:05:23;;;;;;;2.92;0.35;;;;;;;;;;5110498;28;20081;-77
2021/12/25 10:08:00;;;;;;;3.03;0.57;;;;;;;;;;5101586;28;20032;-77
2021/12/25 10:10:34;;;;;;;3.38;0.50;;;;;;;;;;5090852;28;20492;-77
2021/12/25 10:13:00;;;;;;;4.40;0.40;;;;;;;;;;5101522;28;20107;-78
2021/12/25 10:15:28;;;;;;;1.70;0.60;;;;;;;;;;5099317;28;21342;-77
2021/12/25 10:17:56;;;;;;;4.60;1.58;;;;;;;;;;5100079;27;20035;-77
2021/12/25 10:20:24;;;;;;;3.55;1.40;;;;;;;;;;5106013;28;20024;-77
2021/12/25 10:22:55;;;;;;;4.45;0.95;;;;;;;;;;5109968;28;20062;-77
2021/12/25 10:25:21;;;;;;;3.42;0.32;;;;;;;;;;5091508;28;20059;-77
2021/12/25 10:27:52;;;;;;;3.53;0.40;;;;;;;;;;5086000;28;20051;-77
2021/12/25 10:30:18;;;;;;;3.33;0.47;;;;;;;;;;5108817;28;20023;-76
2021/12/25 10:32:44;;;;;;;3.50;0.52;;;;;;;;;;5116796;28;20090;-76
2021/12/25 10:35:21;;;;;;;6.47;0.82;;;;;;;;;;5093702;28;20039;-77
2021/12/25 10:37:48;;;;;;;2.08;0.47;;;;;;;;;;5101520;28;20080;-76
2021/12/25 10:40:18;;;;;;;1.02;0.40;;;;;;;;;;5106401;28;20544;-76
2021/12/25 10:42:45;;;;;;;2.85;0.85;;;;;;;;;;5100653;28;20107;-76
2021/12/25 10:45:15;;;;;;;130.05;79.10;;;;;;;;;;5102900;28;20080;-77
2021/12/25 10:47:41;;;;;;;8.25;4.85;;;;;;;;;;5097387;28;20035;-76
2021/12/25 10:50:14;;;;;;;2.85;1.55;;;;;;;;;;5102786;28;20039;-76
2021/12/25 10:52:43;;;;;;;6.15;1.30;;;;;;;;;;5085624;28;20032;-77
2021/12/25 10:55:24;;;;;;;4.35;0.70;;;;;;;;;;5094668;28;20023;-76
2021/12/25 10:58:01;;;;;;;2.20;0.50;;;;;;;;;;5090775;28;20027;-75
2021/12/25 11:00:29;;;;;;;5.35;0.88;;;;;;;;;;5087613;28;20035;-74
2021/12/25 11:03:09;;;;;;;3.13;0.68;;;;;;;;;;5105537;28;20028;-74
2021/12/25 11:05:37;;;;;;;1.77;0.70;;;;;;;;;;5105115;28;20035;-74
2021/12/25 11:08:09;;;;;;;1.95;0.50;;;;;;;;;;5089864;28;20024;-74
2021/12/25 11:10:47;;;;;;;4.28;1.98;;;;;;;;;;5101686;28;20110;-75
2021/12/25 11:13:21;;;;;;;2.83;0.43;;;;;;;;;;5110406;28;20092;-74
2021/12/25 11:15:47;;;;;;;1.10;0.50;;;;;;;;;;5102654;28;20039;-75
2021/12/25 11:18:15;;;;;;;3.72;0.60;;;;;;;;;;5104187;28;20477;-75
2021/12/25 11:20:42;;;;;;;1.80;0.52;;;;;;;;;;5086152;28;20098;-74
2021/12/25 11:23:10;;;;;;;2.55;0.47;;;;;;;;;;5088541;28;20586;-75
2021/12/25 11:25:37;;;;;;;5.45;0.82;;;;;;;;;;5099480;28;20126;-76
2021/12/25 11:28:06;;;;;;;5.55;0.47;;;;;;;;;;5110857;28;20039;-75
2021/12/25 11:30:33;;;;;;;3.55;0.50;;;;;;;;;;5099737;28;20092;-76
2021/12/25 11:33:00;;;;;;;3.60;0.60;;;;;;;;;;5112163;28;20034;-75
2021/12/25 11:35:27;;;;;;;1.42;0.55;;;;;;;;;;5104494;28;20050;-75
2021/12/25 11:37:55;;;;;;;0.88;0.52;;;;;;;;;;5090096;28;20040;-75
2021/12/25 11:40:23;;;;;;;1.88;0.52;;;;;;;;;;5082824;28;20028;-74
2021/12/25 11:42:53;;;;;;;3.45;0.52;;;;;;;;;;5081100;28;20056;-75
2021/12/25 11:45:25;;;;;;;2.97;0.63;;;;;;;;;;5105034;28;20032;-74
2021/12/25 11:47:52;;;;;;;1.95;0.52;;;;;;;;;;5106332;28;20039;-73
2021/12/25 11:50:24;;;;;;;2.85;0.35;;;;;;;;;;5102439;28;20107;-74
2021/12/25 11:53:06;;;;;;;2.43;0.40;;;;;;;;;;5099025;28;20474;-74
2021/12/25 11:56:17;;;;;;;2.15;0.40;;;;;;;;;;5110096;28;20027;-74
2021/12/25 11:58:39;;;;;;;4.32;1.50;;;;;;;;;;5104381;28;20032;-74
2021/12/25 12:01:24;;;;;;;2.60;0.68;;;;;;;;;;5104108;28;20039;-74
2021/12/25 12:03:57;;;;;;;2.78;0.60;;;;;;;;;;5098206;28;20611;-74
2021/12/25 12:06:42;;;;;;;5.30;1.52;;;;;;;;;;5099444;28;20124;-74
2021/12/25 12:09:10;;;;;;;0.82;0.40;;;;;;;;;;5109957;28;20370;-74
2021/12/25 12:11:37;;;;;;;3.03;0.43;;;;;;;;;;5084585;28;20043;-74
2021/12/25 12:14:17;;;;;;;2.83;0.47;;;;;;;;;;5096926;28;20123;-74
2021/12/25 12:16:44;;;;;;;2.30;0.90;;;;;;;;;;5103967;28;20031;-74
2021/12/25 12:19:39;;;;;;;2.78;0.60;;;0.80;99.90;;;;;;5105901;28;20076;-73
2021/12/25 12:25:15;;;;;;;1.23;0.75;;;;;;;;;;5107709;28;20031;-74
2021/12/25 12:27:37;;;;;;;2.93;1.50;;;;;;;;;;5111109;28;20036;-74
2021/12/25 12:30:07;;;;;;;4.85;1.23;;;;;;;;;;5081196;28;20390;-74
2021/12/25 12:32:35;;;;;;;3.17;0.75;;;;;;;;;;5096552;28;21593;-74
2021/12/25 12:35:01;;;;;;;4.35;0.70;;;;;;;;;;5105681;28;20051;-75
2021/12/25 12:37:28;;;;;;;1.55;0.88;;;;;;;;;;5112048;28;20392;-75
2021/12/25 12:40:03;;;;;;;3.50;0.70;;;;;;;;;;5085980;28;20024;-75
2021/12/25 12:42:46;;;;;;;1.67;0.60;;;;;;;;;;5100895;28;20114;-74
2021/12/25 12:45:18;;;;;;;3.25;0.63;;;;;;;;;;5105547;28;20019;-75
2021/12/25 12:48:20;;;;;;;5.05;0.65;;;0.70;99.90;;;;;;5087062;28;20486;-75
2021/12/25 12:50:48;;;;;;;5.57;1.10;;;;;;;;;;5113596;28;20020;-75
2021/12/25 12:53:14;;;;;;;1.58;0.50;;;;;;;;;;5096684;28;20038;-74
2021/12/25 12:55:42;;;;;;;1.88;0.65;;;;;;;;;;5112571;28;20065;-74
2021/12/25 12:58:17;;;;;;;2.05;0.52;;;;;;;;;;5106409;28;20035;-75
2021/12/25 13:01:00;;;;;;;2.53;0.90;;;;;;;;;;5095611;28;20040;-74
2021/12/25 13:03:26;;;;;;;;;;;0.80;99.90;;;;;;5110371;28;20481;-74
2021/12/25 13:05:54;;;;;;;1.65;0.60;;;;;;;;;;5100349;28;19908;-74
2021/12/25 13:08:25;;;;;;;2.35;0.70;;;;;;;;;;5107776;28;20026;-76
2021/12/25 13:10:52;;;;;;;3.80;0.65;;;;;;;;;;5104663;28;20096;-76
2021/12/25 13:13:21;;;;;;;3.00;0.65;;;;;;;;;;5101640;28;20027;-77
2021/12/25 13:15:49;;;;;;;2.72;0.47;;;;;;;;;;5102089;28;20442;-76
2021/12/25 13:18:16;;;;;;;0.75;0.60;;;;;;;;;;5104746;28;20156;-77
2021/12/25 13:20:44;;;;;;;4.97;1.08;;;;;;;;;;5105842;28;20039;-76
2021/12/25 13:23:19;;;;;;;3.28;1.00;;;;;;;;;;5111591;28;20091;-76
2021/12/25 13:25:52;;;;;;;2.58;0.90;;;;;;;;;;5105112;28;20080;-77
2021/12/25 13:28:19;;;;;;;1.38;0.43;;;;;;;;;;5107367;28;20082;-77
2021/12/25 13:30:49;;;;;;;6.18;0.75;;;;;;;;;;5098150;28;20414;-76
2021/12/25 13:33:19;;;;;;;2.78;0.57;;;;;;;;;;5097498;28;20466;-77
2021/12/25 13:35:46;;;;;;;2.55;0.88;;;;;;;;;;5105553;28;20035;-76
2021/12/25 13:38:12;;;;;;;3.45;1.25;;;;;;;;;;5102626;28;20072;-81
2021/12/25 13:40:39;;;;;;;3.42;1.48;;;;;;;;;;5109611;28;20027;-85
2021/12/25 13:43:09;;;;;;;6.70;1.00;;;;;;;;;;5106277;27;20031;-77
2021/12/25 13:45:35;;;;;;;1.60;0.52;;;;;;;;;;5094929;28;20043;-76
2021/12/25 13:48:02;;;;;;;4.50;1.02;;;;;;;;;;5100297;28;20059;-76
2021/12/25 13:50:28;;;;;;;1.48;0.50;;;;;;;;;;5104793;28;20028;-75
2021/12/25 13:53:00;;;;;;;1.35;0.28;;;;;;;;;;5087236;28;20032;-75
2021/12/25 13:55:30;;;;;;;0.95;0.60;;;;;;;;;;5095234;27;20040;-75
2021/12/25 13:57:58;;;;;;;2.75;0.50;;;;;;;;;;5103408;28;20513;-76
2021/12/25 14:00:32;;;;;;;1.45;0.30;;;;;;;;;;5110838;28;20164;-76
2021/12/25 14:03:00;;;;;;;4.45;0.65;;;;;;;;;;5103697;28;20043;-76
2021/12/25 14:05:27;;;;;;;4.07;0.80;;;;;;;;;;5105122;28;20054;-74
2021/12/25 14:07:53;;;;;;;2.63;0.75;;;;;;;;;;5081606;28;20053;-75
2021/12/25 14:10:24;;;;;;;5.85;1.08;;;;;;;;;;5103711;28;20024;-75
2021/12/25 14:12:51;;;;;;;9.85;0.98;;;;;;;;;;5089813;28;20036;-76
2021/12/25 14:15:18;;;;;;;1.55;0.60;;;;;;;;;;5107838;27;20032;-75
2021/12/25 14:17:46;;;;;;;1.33;0.55;;;;;;;;;;5100807;28;20500;-76
2021/12/25 14:20:27;;;;;;;2.53;0.40;;;;;;;;;;5107964;28;20044;-75
2021/12/25 14:23:04;;;;;;;1.38;0.40;;;;;;;;;;5107927;28;20032;-75
2021/12/25 14:25:32;;;;;;;5.15;1.08;;;;;;;;;;5103916;28;20028;-76
2021/12/25 14:28:01;;;;;;;3.47;0.77;;;;;;;;;;5102352;28;20101;-76
2021/12/25 14:30:28;;;;;;;8.80;0.93;;;;;;;;;;5102416;27;20034;-76
2021/12/25 14:32:54;;;;;;;3.95;0.55;;;;;;;;;;5084780;28;20028;-74
2021/12/25 14:35:21;;;;;;;3.67;0.65;;;;;;;;;;5104225;28;20485;-76
2021/12/25 14:37:47;;;;;;;4.82;0.50;;;;;;;;;;5100766;28;20106;-76
2021/12/25 14:40:13;;;;;;;4.13;0.57;;;;;;;;;;5098264;28;20028;-75
2021/12/25 14:42:44;;;;;;;6.70;0.90;;;;;;;;;;5103295;28;20039;-76
2021/12/25 14:45:10;;;;;;;5.43;0.60;;;;;;;;;;5104895;28;20397;-76
2021/12/25 14:47:50;;;;;;;2.78;0.70;;;;;;;;;;5103891;28;20077;-76
2021/12/25 14:50:18;;;;;;;4.45;1.30;;;;;;;;;;5107507;27;20490;-76
2021/12/25 14:52:44;;;;;;;1.73;0.70;;;;;;;;;;5100737;28;20040;-76
2021/12/25 14:55:17;;;;;;;4.25;1.45;;;;;;;;;;5103756;28;20031;-81
2021/12/25 14:57:43;;;;;;;11.50;1.00;;;;;;;;;;5083388;28;20024;-75
2021/12/25 15:00:10;;;;;;;5.20;2.03;;;;;;;;;;5101675;28;20036;-75
2021/12/25 15:02:37;;;;;;;4.13;1.38;;;;;;;;;;5104015;28;20056;-76
2021/12/25 15:05:03;;;;;;;2.88;1.00;;;;;;;;;;5102000;28;20127;-76
2021/12/25 15:07:31;;;;;;;5.28;1.10;;;;;;;;;;5106930;28;20381;-76
2021/12/25 15:09:57;;;;;;;5.03;1.85;;;;;;;;;;5103727;28;20065;-76
2021/12/25 15:12:26;;;;;;;3.20;0.80;;;;;;;;;;5103079;27;20059;-76
2021/12/25 15:14:53;;;;;;;5.78;2.58;;;;;;;;;;5103434;28;20044;-75
2021/12/25 15:17:25;;;;;;;1.00;0.60;;;;;;;;;;5107009;28;20047;-75
2021/12/25 15:19:59;;;;;;;5.60;1.17;;;;;;;;;;5105575;28;20019;-75
2021/12/25 15:22:26;;;;;;;2.75;1.15;;;;;;;;;;5109933;28;20088;-75
2021/12/25 15:24:54;;;;;;;4.80;1.15;;;;;;;;;;5104999;27;20028;-75
2021/12/25 15:27:46;;;;;;;3.50;0.82;;;;;;;;;;5107653;28;20028;-75
2021/12/25 15:30:17;;;;;;;2.40;0.90;;;;;;;;;;5100651;28;20045;-75
2021/12/25 15:32:44;;;;;;;3.88;1.60;;;;;;;;;;5088324;28;20038;-75
2021/12/25 15:35:12;;;;;;;2.38;1.23;;;;;;;;;;5100941;28;20140;-75
2021/12/25 15:37:46;;;;;;;9.07;3.97;;;;;;;;;;5101473;28;20102;-75
2021/12/25 15:40:17;;;;;;;13.35;4.38;;;;;;;;;;5107240;28;20035;-74
2021/12/25 15:42:43;;;;;;;3.03;1.38;;;;;;;;;;5099479;28;20032;-75
2021/12/25 15:45:10;;;;;;;2.72;1.17;;;;;;;;;;5109927;28;20115;-74
2021/12/25 15:47:36;;;;;;;6.00;1.35;;;;;;;;;;5097959;27;20106;-77
2021/12/25 15:50:02;;;;;;;4.13;0.75;;;;;;;;;;5106648;28;20031;-77
2021/12/25 15:52:29;;;;;;;1.15;0.70;;;;;;;;;;5104394;28;20047;-76
2021/12/25 15:54:55;;;;;;;2.33;0.60;;;;;;;;;;5093441;28;20114;-77
2021/12/25 15:57:22;;;;;;;2.97;0.88;;;;;;;;;;5099369;28;20028;-77
2021/12/25 15:59:48;;;;;;;4.03;0.82;;;;;;;;;;5109891;28;20032;-77
2021/12/25 16:02:16;;;;;;;3.00;0.77;;;;;;;;;;5102021;28;20047;-77
2021/12/25 16:04:43;;;;;;;9.45;1.90;;;;;;;;;;5103406;28;20065;-77
2021/12/25 16:07:10;;;;;;;2.00;0.80;;;;;;;;;;5081899;28;20028;-76
2021/12/25 16:09:36;;;;;;;4.93;1.38;;;;;;;;;;5093196;28;20428;-77